sensor_id;sensor_type;location;lat;lon;timestamp;P1;durP1;ratioP1;P2;durP2;ratioP2
4272;SDS011;63887;53.656;9.810;2023-03-21T00:01:38;36.33;;;24.33;;
4272;SDS011;63887;53.656;9.810;2023-03-21T00:04:05;40.60;;;27.20;;
4272;SDS011;63887;53.656;9.810;2023-03-21T00:06:31;35.50;;;25.77;;
4272;SDS011;63887;53.656;9.810;2023-03-21T00:08:58;38.10;;;25.63;;
4272;SDS011;63887;53.656;9.810;2023-03-21T00:11:24;35.37;;;27.03;;
4272;SDS011;63887;53.656;9.810;2023-03-21T00:13:51;36.77;;;26.50;;
4272;SDS011;63887;53.656;9.810;2023-03-21T00:16:22;38.87;;;27.77;;
4272;SDS011;63887;53.656;9.810;2023-03-21T00:18:52;36.87;;;27.13;;
4272;SDS011;63887;53.656;9.810;2023-03-21T00:21:19;39.20;;;26.97;;
4272;SDS011;63887;53.656;9.810;2023-03-21T00:23:52;42.40;;;28.60;;
4272;SDS011;63887;53.656;9.810;2023-03-21T00:26:19;38.90;;;27.77;;
4272;SDS011;63887;53.656;9.810;2023-03-21T00:28:47;33.93;;;26.00;;
4272;SDS011;63887;53.656;9.810;2023-03-21T00:31:14;39.30;;;27.00;;
4272;SDS011;63887;53.656;9.810;2023-03-21T00:33:41;35.40;;;24.50;;
4272;SDS011;63887;53.656;9.810;2023-03-21T00:36:09;36.33;;;26.17;;
4272;SDS011;63887;53.656;9.810;2023-03-21T00:38:37;38.43;;;25.33;;
4272;SDS011;63887;53.656;9.810;2023-03-21T00:41:03;34.50;;;25.13;;
4272;SDS011;63887;53.656;9.810;2023-03-21T00:43:31;38.87;;;28.20;;
4272;SDS011;63887;53.656;9.810;2023-03-21T00:45:57;37.93;;;26.97;;
4272;SDS011;63887;53.656;9.810;2023-03-21T00:48:24;42.27;;;27.60;;
4272;SDS011;63887;53.656;9.810;2023-03-21T00:50:52;40.47;;;26.90;;
4272;SDS011;63887;53.656;9.810;2023-03-21T00:53:21;44.73;;;29.33;;
4272;SDS011;63887;53.656;9.810;2023-03-21T00:55:48;42.27;;;29.67;;
4272;SDS011;63887;53.656;9.810;2023-03-21T00:58:15;43.47;;;28.83;;
4272;SDS011;63887;53.656;9.810;2023-03-21T01:00:42;45.80;;;29.83;;
4272;SDS011;63887;53.656;9.810;2023-03-21T01:03:09;38.60;;;27.87;;
4272;SDS011;63887;53.656;9.810;2023-03-21T01:05:39;42.40;;;29.73;;
4272;SDS011;63887;53.656;9.810;2023-03-21T01:08:26;59.77;;;31.00;;
4272;SDS011;63887;53.656;9.810;2023-03-21T01:10:53;46.80;;;28.30;;
4272;SDS011;63887;53.656;9.810;2023-03-21T01:13:21;47.47;;;29.33;;
4272;SDS011;63887;53.656;9.810;2023-03-21T01:15:50;46.67;;;31.43;;
4272;SDS011;63887;53.656;9.810;2023-03-21T01:18:19;43.10;;;28.37;;
4272;SDS011;63887;53.656;9.810;2023-03-21T01:20:47;43.13;;;30.37;;
4272;SDS011;63887;53.656;9.810;2023-03-21T01:23:14;45.10;;;31.00;;
4272;SDS011;63887;53.656;9.810;2023-03-21T01:25:42;47.03;;;30.87;;
4272;SDS011;63887;53.656;9.810;2023-03-21T01:28:09;48.07;;;31.40;;
4272;SDS011;63887;53.656;9.810;2023-03-21T01:30:36;53.87;;;32.17;;
4272;SDS011;63887;53.656;9.810;2023-03-21T01:33:02;47.23;;;30.50;;
4272;SDS011;63887;53.656;9.810;2023-03-21T01:35:29;59.90;;;32.60;;
4272;SDS011;63887;53.656;9.810;2023-03-21T01:37:55;50.17;;;31.20;;
4272;SDS011;63887;53.656;9.810;2023-03-21T01:40:23;54.47;;;33.00;;
4272;SDS011;63887;53.656;9.810;2023-03-21T01:42:53;55.90;;;31.70;;
4272;SDS011;63887;53.656;9.810;2023-03-21T01:48:23;56.93;;;33.40;;
4272;SDS011;63887;53.656;9.810;2023-03-21T01:50:53;55.60;;;33.60;;
4272;SDS011;63887;53.656;9.810;2023-03-21T01:53:23;53.43;;;33.00;;
4272;SDS011;63887;53.656;9.810;2023-03-21T01:55:54;57.07;;;34.20;;
4272;SDS011;63887;53.656;9.810;2023-03-21T01:58:23;58.13;;;32.70;;
4272;SDS011;63887;53.656;9.810;2023-03-21T02:00:50;51.60;;;31.53;;
4272;SDS011;63887;53.656;9.810;2023-03-21T02:03:18;57.67;;;33.87;;
4272;SDS011;63887;53.656;9.810;2023-03-21T02:05:48;64.13;;;33.70;;
4272;SDS011;63887;53.656;9.810;2023-03-21T02:08:18;54.93;;;33.90;;
4272;SDS011;63887;53.656;9.810;2023-03-21T02:10:47;60.13;;;34.47;;
4272;SDS011;63887;53.656;9.810;2023-03-21T02:13:16;56.03;;;34.57;;
4272;SDS011;63887;53.656;9.810;2023-03-21T02:15:45;58.00;;;36.53;;
4272;SDS011;63887;53.656;9.810;2023-03-21T02:18:23;68.43;;;36.27;;
4272;SDS011;63887;53.656;9.810;2023-03-21T02:21:06;62.53;;;36.20;;
4272;SDS011;63887;53.656;9.810;2023-03-21T02:26:54;57.27;;;35.30;;
4272;SDS011;63887;53.656;9.810;2023-03-21T02:29:32;64.20;;;35.37;;
4272;SDS011;63887;53.656;9.810;2023-03-21T02:32:19;62.93;;;35.83;;
4272;SDS011;63887;53.656;9.810;2023-03-21T02:35:03;61.50;;;35.27;;
4272;SDS011;63887;53.656;9.810;2023-03-21T02:37:47;67.00;;;36.50;;
4272;SDS011;63887;53.656;9.810;2023-03-21T02:40:22;64.73;;;36.53;;
4272;SDS011;63887;53.656;9.810;2023-03-21T02:42:54;61.37;;;36.70;;
4272;SDS011;63887;53.656;9.810;2023-03-21T02:45:30;66.90;;;38.80;;
4272;SDS011;63887;53.656;9.810;2023-03-21T02:48:02;65.60;;;39.83;;
4272;SDS011;63887;53.656;9.810;2023-03-21T02:50:33;67.10;;;37.37;;
4272;SDS011;63887;53.656;9.810;2023-03-21T02:53:05;68.43;;;37.50;;
4272;SDS011;63887;53.656;9.810;2023-03-21T02:55:34;69.47;;;39.70;;
4272;SDS011;63887;53.656;9.810;2023-03-21T02:58:02;70.30;;;39.90;;
4272;SDS011;63887;53.656;9.810;2023-03-21T03:00:31;68.30;;;40.47;;
4272;SDS011;63887;53.656;9.810;2023-03-21T03:02:58;70.83;;;41.20;;
4272;SDS011;63887;53.656;9.810;2023-03-21T03:05:26;66.50;;;40.87;;
4272;SDS011;63887;53.656;9.810;2023-03-21T03:07:56;71.00;;;37.83;;
4272;SDS011;63887;53.656;9.810;2023-03-21T03:10:48;66.40;;;39.73;;
4272;SDS011;63887;53.656;9.810;2023-03-21T03:13:26;68.53;;;38.20;;
4272;SDS011;63887;53.656;9.810;2023-03-21T03:16:05;74.70;;;38.57;;
4272;SDS011;63887;53.656;9.810;2023-03-21T03:18:40;73.93;;;41.50;;
4272;SDS011;63887;53.656;9.810;2023-03-21T03:21:15;76.07;;;39.90;;
4272;SDS011;63887;53.656;9.810;2023-03-21T03:23:47;72.43;;;40.37;;
4272;SDS011;63887;53.656;9.810;2023-03-21T03:26:20;80.77;;;43.37;;
4272;SDS011;63887;53.656;9.810;2023-03-21T03:28:52;72.97;;;39.90;;
4272;SDS011;63887;53.656;9.810;2023-03-21T03:31:22;75.00;;;41.80;;
4272;SDS011;63887;53.656;9.810;2023-03-21T03:33:51;78.73;;;42.50;;
4272;SDS011;63887;53.656;9.810;2023-03-21T03:36:21;77.17;;;43.13;;
4272;SDS011;63887;53.656;9.810;2023-03-21T03:38:52;73.57;;;39.70;;
4272;SDS011;63887;53.656;9.810;2023-03-21T03:41:23;83.10;;;43.90;;
4272;SDS011;63887;53.656;9.810;2023-03-21T03:43:53;71.53;;;40.17;;
4272;SDS011;63887;53.656;9.810;2023-03-21T03:46:23;71.40;;;41.03;;
4272;SDS011;63887;53.656;9.810;2023-03-21T03:48:54;81.90;;;40.57;;
4272;SDS011;63887;53.656;9.810;2023-03-21T03:51:24;77.43;;;43.77;;
4272;SDS011;63887;53.656;9.810;2023-03-21T03:53:54;78.80;;;42.77;;
4272;SDS011;63887;53.656;9.810;2023-03-21T03:56:26;82.63;;;43.70;;
4272;SDS011;63887;53.656;9.810;2023-03-21T03:58:54;75.17;;;41.83;;
4272;SDS011;63887;53.656;9.810;2023-03-21T04:01:21;81.43;;;40.90;;
4272;SDS011;63887;53.656;9.810;2023-03-21T04:03:48;68.17;;;40.17;;
4272;SDS011;63887;53.656;9.810;2023-03-21T04:06:15;71.13;;;41.83;;
4272;SDS011;63887;53.656;9.810;2023-03-21T04:08:42;79.67;;;43.80;;
4272;SDS011;63887;53.656;9.810;2023-03-21T04:11:09;67.97;;;40.93;;
4272;SDS011;63887;53.656;9.810;2023-03-21T04:13:39;80.33;;;43.67;;
4272;SDS011;63887;53.656;9.810;2023-03-21T04:16:06;63.83;;;38.47;;
4272;SDS011;63887;53.656;9.810;2023-03-21T04:18:33;68.97;;;42.47;;
4272;SDS011;63887;53.656;9.810;2023-03-21T04:20:59;69.90;;;40.07;;
4272;SDS011;63887;53.656;9.810;2023-03-21T04:23:27;77.93;;;42.90;;
4272;SDS011;63887;53.656;9.810;2023-03-21T04:25:54;73.47;;;40.93;;
4272;SDS011;63887;53.656;9.810;2023-03-21T04:28:20;79.47;;;42.10;;
4272;SDS011;63887;53.656;9.810;2023-03-21T04:30:48;73.23;;;42.43;;
4272;SDS011;63887;53.656;9.810;2023-03-21T04:33:15;79.47;;;44.20;;
4272;SDS011;63887;53.656;9.810;2023-03-21T04:35:42;77.10;;;43.10;;
4272;SDS011;63887;53.656;9.810;2023-03-21T04:38:09;71.60;;;41.77;;
4272;SDS011;63887;53.656;9.810;2023-03-21T04:40:36;77.03;;;41.93;;
4272;SDS011;63887;53.656;9.810;2023-03-21T04:43:02;70.80;;;41.17;;
4272;SDS011;63887;53.656;9.810;2023-03-21T04:45:28;68.43;;;40.57;;
4272;SDS011;63887;53.656;9.810;2023-03-21T04:47:56;69.60;;;41.03;;
4272;SDS011;63887;53.656;9.810;2023-03-21T04:50:23;70.00;;;42.87;;
4272;SDS011;63887;53.656;9.810;2023-03-21T04:52:49;82.30;;;44.47;;
4272;SDS011;63887;53.656;9.810;2023-03-21T04:55:16;72.53;;;43.23;;
4272;SDS011;63887;53.656;9.810;2023-03-21T04:57:45;72.27;;;40.97;;
4272;SDS011;63887;53.656;9.810;2023-03-21T05:00:12;74.57;;;43.00;;
4272;SDS011;63887;53.656;9.810;2023-03-21T05:02:39;62.20;;;39.20;;
4272;SDS011;63887;53.656;9.810;2023-03-21T05:05:07;72.07;;;39.57;;
4272;SDS011;63887;53.656;9.810;2023-03-21T05:07:36;72.00;;;39.80;;
4272;SDS011;63887;53.656;9.810;2023-03-21T05:10:04;68.27;;;40.40;;
4272;SDS011;63887;53.656;9.810;2023-03-21T05:12:31;71.80;;;40.67;;
4272;SDS011;63887;53.656;9.810;2023-03-21T05:14:58;75.40;;;42.60;;
4272;SDS011;63887;53.656;9.810;2023-03-21T05:17:24;75.00;;;40.40;;
4272;SDS011;63887;53.656;9.810;2023-03-21T05:19:52;80.03;;;44.20;;
4272;SDS011;63887;53.656;9.810;2023-03-21T05:22:22;69.20;;;39.70;;
4272;SDS011;63887;53.656;9.810;2023-03-21T05:24:51;81.40;;;43.17;;
4272;SDS011;63887;53.656;9.810;2023-03-21T05:27:19;63.23;;;38.57;;
4272;SDS011;63887;53.656;9.810;2023-03-21T05:29:59;69.10;;;40.93;;
4272;SDS011;63887;53.656;9.810;2023-03-21T05:32:26;67.33;;;39.60;;
4272;SDS011;63887;53.656;9.810;2023-03-21T05:34:52;62.20;;;38.93;;
4272;SDS011;63887;53.656;9.810;2023-03-21T05:37:19;66.50;;;41.30;;
4272;SDS011;63887;53.656;9.810;2023-03-21T05:39:47;64.13;;;41.40;;
4272;SDS011;63887;53.656;9.810;2023-03-21T05:42:13;71.47;;;42.13;;
4272;SDS011;63887;53.656;9.810;2023-03-21T05:44:40;70.57;;;40.53;;
4272;SDS011;63887;53.656;9.810;2023-03-21T05:47:06;71.77;;;43.27;;
4272;SDS011;63887;53.656;9.810;2023-03-21T05:49:33;62.30;;;36.80;;
4272;SDS011;63887;53.656;9.810;2023-03-21T05:51:59;63.43;;;40.07;;
4272;SDS011;63887;53.656;9.810;2023-03-21T05:54:25;64.27;;;40.77;;
4272;SDS011;63887;53.656;9.810;2023-03-21T05:56:53;71.67;;;38.37;;
4272;SDS011;63887;53.656;9.810;2023-03-21T05:59:20;61.80;;;35.93;;
4272;SDS011;63887;53.656;9.810;2023-03-21T06:01:46;66.43;;;38.40;;
4272;SDS011;63887;53.656;9.810;2023-03-21T06:04:13;63.70;;;38.57;;
4272;SDS011;63887;53.656;9.810;2023-03-21T06:06:39;60.83;;;37.27;;
4272;SDS011;63887;53.656;9.810;2023-03-21T06:09:06;57.47;;;38.20;;
4272;SDS011;63887;53.656;9.810;2023-03-21T06:11:33;56.70;;;36.60;;
4272;SDS011;63887;53.656;9.810;2023-03-21T06:14:03;64.57;;;38.00;;
4272;SDS011;63887;53.656;9.810;2023-03-21T06:16:29;59.70;;;38.20;;
4272;SDS011;63887;53.656;9.810;2023-03-21T06:18:56;59.07;;;37.80;;
4272;SDS011;63887;53.656;9.810;2023-03-21T06:21:22;61.57;;;36.53;;
4272;SDS011;63887;53.656;9.810;2023-03-21T06:23:48;62.27;;;37.10;;
4272;SDS011;63887;53.656;9.810;2023-03-21T06:26:16;65.03;;;38.97;;
4272;SDS011;63887;53.656;9.810;2023-03-21T06:28:46;63.00;;;38.43;;
4272;SDS011;63887;53.656;9.810;2023-03-21T06:31:14;60.13;;;38.70;;
4272;SDS011;63887;53.656;9.810;2023-03-21T06:33:41;58.57;;;37.63;;
4272;SDS011;63887;53.656;9.810;2023-03-21T06:36:08;65.37;;;38.73;;
4272;SDS011;63887;53.656;9.810;2023-03-21T06:38:35;60.60;;;39.90;;
4272;SDS011;63887;53.656;9.810;2023-03-21T06:41:02;62.70;;;38.90;;
4272;SDS011;63887;53.656;9.810;2023-03-21T06:43:29;61.73;;;39.60;;
4272;SDS011;63887;53.656;9.810;2023-03-21T06:45:56;67.00;;;41.10;;
4272;SDS011;63887;53.656;9.810;2023-03-21T06:48:23;65.90;;;41.50;;
4272;SDS011;63887;53.656;9.810;2023-03-21T06:50:51;63.37;;;41.53;;
4272;SDS011;63887;53.656;9.810;2023-03-21T06:53:19;67.00;;;41.67;;
4272;SDS011;63887;53.656;9.810;2023-03-21T06:55:48;64.20;;;39.23;;
4272;SDS011;63887;53.656;9.810;2023-03-21T06:58:15;62.27;;;39.20;;
4272;SDS011;63887;53.656;9.810;2023-03-21T07:00:41;84.67;;;49.13;;
4272;SDS011;63887;53.656;9.810;2023-03-21T07:03:08;70.00;;;43.53;;
4272;SDS011;63887;53.656;9.810;2023-03-21T07:05:36;63.83;;;39.77;;
4272;SDS011;63887;53.656;9.810;2023-03-21T07:08:04;65.83;;;40.70;;
4272;SDS011;63887;53.656;9.810;2023-03-21T07:10:31;61.37;;;40.37;;
4272;SDS011;63887;53.656;9.810;2023-03-21T07:12:57;66.57;;;41.93;;
4272;SDS011;63887;53.656;9.810;2023-03-21T07:15:24;67.67;;;40.67;;
4272;SDS011;63887;53.656;9.810;2023-03-21T07:17:51;63.43;;;38.67;;
4272;SDS011;63887;53.656;9.810;2023-03-21T07:20:18;71.23;;;41.77;;
4272;SDS011;63887;53.656;9.810;2023-03-21T07:22:46;66.23;;;41.40;;
4272;SDS011;63887;53.656;9.810;2023-03-21T07:25:12;68.83;;;40.90;;
4272;SDS011;63887;53.656;9.810;2023-03-21T07:27:41;75.53;;;41.30;;
4272;SDS011;63887;53.656;9.810;2023-03-21T07:30:08;63.10;;;39.07;;
4272;SDS011;63887;53.656;9.810;2023-03-21T07:32:36;68.67;;;41.20;;
4272;SDS011;63887;53.656;9.810;2023-03-21T07:35:04;74.33;;;42.73;;
4272;SDS011;63887;53.656;9.810;2023-03-21T07:37:32;82.27;;;43.43;;
4272;SDS011;63887;53.656;9.810;2023-03-21T07:40:00;71.70;;;42.60;;
4272;SDS011;63887;53.656;9.810;2023-03-21T07:42:26;73.10;;;42.73;;
4272;SDS011;63887;53.656;9.810;2023-03-21T07:44:52;74.73;;;43.53;;
4272;SDS011;63887;53.656;9.810;2023-03-21T07:47:19;80.33;;;43.20;;
4272;SDS011;63887;53.656;9.810;2023-03-21T07:49:45;85.50;;;44.10;;
4272;SDS011;63887;53.656;9.810;2023-03-21T07:52:12;85.80;;;42.80;;
4272;SDS011;63887;53.656;9.810;2023-03-21T07:54:38;92.47;;;48.27;;
4272;SDS011;63887;53.656;9.810;2023-03-21T07:57:06;94.77;;;45.07;;
4272;SDS011;63887;53.656;9.810;2023-03-21T07:59:33;99.83;;;47.90;;
4272;SDS011;63887;53.656;9.810;2023-03-21T08:01:59;98.03;;;49.93;;
4272;SDS011;63887;53.656;9.810;2023-03-21T08:04:26;96.07;;;42.10;;
4272;SDS011;63887;53.656;9.810;2023-03-21T08:06:52;93.33;;;44.40;;
4272;SDS011;63887;53.656;9.810;2023-03-21T08:09:19;85.70;;;45.83;;
4272;SDS011;63887;53.656;9.810;2023-03-21T08:11:45;80.60;;;43.10;;
4272;SDS011;63887;53.656;9.810;2023-03-21T08:14:13;95.27;;;46.07;;
4272;SDS011;63887;53.656;9.810;2023-03-21T08:16:39;99.10;;;47.60;;
4272;SDS011;63887;53.656;9.810;2023-03-21T08:19:06;93.20;;;43.50;;
4272;SDS011;63887;53.656;9.810;2023-03-21T08:21:32;93.70;;;43.93;;
4272;SDS011;63887;53.656;9.810;2023-03-21T08:23:59;90.60;;;45.03;;
4272;SDS011;63887;53.656;9.810;2023-03-21T08:26:25;87.50;;;45.07;;
4272;SDS011;63887;53.656;9.810;2023-03-21T08:28:52;95.40;;;47.07;;
4272;SDS011;63887;53.656;9.810;2023-03-21T08:31:19;78.43;;;42.77;;
4272;SDS011;63887;53.656;9.810;2023-03-21T08:33:46;85.87;;;44.10;;
4272;SDS011;63887;53.656;9.810;2023-03-21T08:36:15;89.20;;;44.93;;
4272;SDS011;63887;53.656;9.810;2023-03-21T08:38:41;90.97;;;45.77;;
4272;SDS011;63887;53.656;9.810;2023-03-21T08:41:10;86.43;;;42.90;;
4272;SDS011;63887;53.656;9.810;2023-03-21T08:43:36;88.03;;;44.60;;
4272;SDS011;63887;53.656;9.810;2023-03-21T08:46:03;105.03;;;49.03;;
4272;SDS011;63887;53.656;9.810;2023-03-21T08:48:31;98.17;;;46.00;;
4272;SDS011;63887;53.656;9.810;2023-03-21T08:50:58;96.90;;;44.27;;
4272;SDS011;63887;53.656;9.810;2023-03-21T08:53:25;106.30;;;48.30;;
4272;SDS011;63887;53.656;9.810;2023-03-21T08:55:51;89.83;;;46.07;;
4272;SDS011;63887;53.656;9.810;2023-03-21T08:58:18;96.10;;;45.53;;
4272;SDS011;63887;53.656;9.810;2023-03-21T09:00:45;88.70;;;43.40;;
4272;SDS011;63887;53.656;9.810;2023-03-21T09:03:11;100.00;;;47.33;;
4272;SDS011;63887;53.656;9.810;2023-03-21T09:05:39;101.13;;;44.83;;
4272;SDS011;63887;53.656;9.810;2023-03-21T09:08:05;91.80;;;43.70;;
4272;SDS011;63887;53.656;9.810;2023-03-21T09:10:32;90.60;;;42.83;;
4272;SDS011;63887;53.656;9.810;2023-03-21T09:12:58;94.70;;;43.83;;
4272;SDS011;63887;53.656;9.810;2023-03-21T09:15:25;97.27;;;46.23;;
4272;SDS011;63887;53.656;9.810;2023-03-21T09:17:53;91.37;;;45.00;;
4272;SDS011;63887;53.656;9.810;2023-03-21T09:20:22;99.00;;;46.07;;
4272;SDS011;63887;53.656;9.810;2023-03-21T09:22:56;91.13;;;42.93;;
4272;SDS011;63887;53.656;9.810;2023-03-21T09:25:22;92.87;;;44.03;;
4272;SDS011;63887;53.656;9.810;2023-03-21T09:27:49;98.47;;;46.03;;
4272;SDS011;63887;53.656;9.810;2023-03-21T09:30:18;92.03;;;45.63;;
4272;SDS011;63887;53.656;9.810;2023-03-21T09:32:45;91.77;;;45.77;;
4272;SDS011;63887;53.656;9.810;2023-03-21T09:35:13;89.00;;;43.90;;
4272;SDS011;63887;53.656;9.810;2023-03-21T09:37:40;91.80;;;46.07;;
4272;SDS011;63887;53.656;9.810;2023-03-21T09:40:13;76.93;;;42.13;;
4272;SDS011;63887;53.656;9.810;2023-03-21T09:42:45;96.17;;;47.73;;
4272;SDS011;63887;53.656;9.810;2023-03-21T09:45:23;96.20;;;42.73;;
4272;SDS011;63887;53.656;9.810;2023-03-21T09:47:58;98.67;;;44.73;;
4272;SDS011;63887;53.656;9.810;2023-03-21T09:50:25;95.33;;;43.73;;
4272;SDS011;63887;53.656;9.810;2023-03-21T09:52:56;79.47;;;42.40;;
4272;SDS011;63887;53.656;9.810;2023-03-21T09:55:27;85.30;;;41.97;;
4272;SDS011;63887;53.656;9.810;2023-03-21T09:57:59;96.80;;;44.53;;
4272;SDS011;63887;53.656;9.810;2023-03-21T10:00:31;73.37;;;39.33;;
4272;SDS011;63887;53.656;9.810;2023-03-21T10:03:02;74.90;;;39.40;;
4272;SDS011;63887;53.656;9.810;2023-03-21T10:05:33;89.10;;;42.30;;
4272;SDS011;63887;53.656;9.810;2023-03-21T10:08:08;77.90;;;41.60;;
4272;SDS011;63887;53.656;9.810;2023-03-21T10:10:44;83.53;;;39.40;;
4272;SDS011;63887;53.656;9.810;2023-03-21T10:13:14;75.60;;;39.97;;
4272;SDS011;63887;53.656;9.810;2023-03-21T10:15:45;64.83;;;37.63;;
4272;SDS011;63887;53.656;9.810;2023-03-21T10:18:12;82.97;;;41.90;;
4272;SDS011;63887;53.656;9.810;2023-03-21T10:20:46;62.77;;;38.57;;
4272;SDS011;63887;53.656;9.810;2023-03-21T10:23:13;68.70;;;36.97;;
4272;SDS011;63887;53.656;9.810;2023-03-21T10:25:42;69.30;;;36.57;;
4272;SDS011;63887;53.656;9.810;2023-03-21T10:28:14;61.53;;;35.83;;
4272;SDS011;63887;53.656;9.810;2023-03-21T10:30:44;56.37;;;34.10;;
4272;SDS011;63887;53.656;9.810;2023-03-21T10:33:14;57.63;;;33.73;;
4272;SDS011;63887;53.656;9.810;2023-03-21T10:35:45;59.53;;;36.77;;
4272;SDS011;63887;53.656;9.810;2023-03-21T10:38:15;53.53;;;34.73;;
4272;SDS011;63887;53.656;9.810;2023-03-21T10:40:46;62.00;;;35.50;;
4272;SDS011;63887;53.656;9.810;2023-03-21T10:43:17;53.37;;;33.93;;
4272;SDS011;63887;53.656;9.810;2023-03-21T10:45:55;58.10;;;36.47;;
4272;SDS011;63887;53.656;9.810;2023-03-21T10:48:22;61.67;;;33.90;;
4272;SDS011;63887;53.656;9.810;2023-03-21T10:50:50;52.97;;;32.80;;
4272;SDS011;63887;53.656;9.810;2023-03-21T10:53:19;55.60;;;33.43;;
4272;SDS011;63887;53.656;9.810;2023-03-21T10:55:49;63.40;;;33.77;;
4272;SDS011;63887;53.656;9.810;2023-03-21T10:58:19;62.30;;;35.07;;
4272;SDS011;63887;53.656;9.810;2023-03-21T11:00:53;52.47;;;34.03;;
4272;SDS011;63887;53.656;9.810;2023-03-21T11:03:23;52.20;;;34.03;;
4272;SDS011;63887;53.656;9.810;2023-03-21T11:05:55;51.00;;;32.70;;
4272;SDS011;63887;53.656;9.810;2023-03-21T11:08:26;51.30;;;32.70;;
4272;SDS011;63887;53.656;9.810;2023-03-21T11:10:58;53.40;;;34.43;;
4272;SDS011;63887;53.656;9.810;2023-03-21T11:13:32;56.53;;;33.63;;
4272;SDS011;63887;53.656;9.810;2023-03-21T11:16:03;53.47;;;33.33;;
4272;SDS011;63887;53.656;9.810;2023-03-21T11:18:32;56.93;;;37.50;;
4272;SDS011;63887;53.656;9.810;2023-03-21T11:21:01;53.03;;;35.20;;
4272;SDS011;63887;53.656;9.810;2023-03-21T11:23:30;56.43;;;32.10;;
4272;SDS011;63887;53.656;9.810;2023-03-21T11:26:01;55.80;;;32.87;;
4272;SDS011;63887;53.656;9.810;2023-03-21T11:28:31;53.70;;;34.13;;
4272;SDS011;63887;53.656;9.810;2023-03-21T11:31:02;58.43;;;33.43;;
4272;SDS011;63887;53.656;9.810;2023-03-21T11:33:31;52.03;;;33.33;;
4272;SDS011;63887;53.656;9.810;2023-03-21T11:36:01;49.13;;;31.17;;
4272;SDS011;63887;53.656;9.810;2023-03-21T11:38:30;48.07;;;30.87;;
4272;SDS011;63887;53.656;9.810;2023-03-21T11:40:58;52.83;;;33.03;;
4272;SDS011;63887;53.656;9.810;2023-03-21T11:43:28;51.47;;;29.93;;
4272;SDS011;63887;53.656;9.810;2023-03-21T11:45:57;49.87;;;31.73;;
4272;SDS011;63887;53.656;9.810;2023-03-21T11:48:25;56.47;;;33.53;;
4272;SDS011;63887;53.656;9.810;2023-03-21T11:50:55;49.43;;;34.23;;
4272;SDS011;63887;53.656;9.810;2023-03-21T11:53:32;54.83;;;33.47;;
4272;SDS011;63887;53.656;9.810;2023-03-21T11:56:14;49.17;;;31.27;;
4272;SDS011;63887;53.656;9.810;2023-03-21T11:58:53;51.07;;;31.83;;
4272;SDS011;63887;53.656;9.810;2023-03-21T12:01:30;51.10;;;31.37;;
4272;SDS011;63887;53.656;9.810;2023-03-21T12:04:07;52.43;;;31.40;;
4272;SDS011;63887;53.656;9.810;2023-03-21T12:06:44;50.13;;;31.80;;
4272;SDS011;63887;53.656;9.810;2023-03-21T12:09:20;50.87;;;30.37;;
4272;SDS011;63887;53.656;9.810;2023-03-21T12:12:01;58.70;;;31.93;;
4272;SDS011;63887;53.656;9.810;2023-03-21T12:14:46;49.47;;;27.33;;
4272;SDS011;63887;53.656;9.810;2023-03-21T12:17:26;44.33;;;29.17;;
4272;SDS011;63887;53.656;9.810;2023-03-21T12:20:02;52.10;;;30.43;;
4272;SDS011;63887;53.656;9.810;2023-03-21T12:22:40;52.50;;;32.43;;
4272;SDS011;63887;53.656;9.810;2023-03-21T12:25:18;47.00;;;30.03;;
4272;SDS011;63887;53.656;9.810;2023-03-21T12:27:51;44.20;;;29.80;;
4272;SDS011;63887;53.656;9.810;2023-03-21T12:30:35;45.57;;;30.23;;
4272;SDS011;63887;53.656;9.810;2023-03-21T12:33:13;45.47;;;30.63;;
4272;SDS011;63887;53.656;9.810;2023-03-21T12:36:05;44.00;;;28.17;;
4272;SDS011;63887;53.656;9.810;2023-03-21T12:38:47;43.90;;;25.90;;
4272;SDS011;63887;53.656;9.810;2023-03-21T12:41:22;45.73;;;26.43;;
4272;SDS011;63887;53.656;9.810;2023-03-21T12:43:52;36.17;;;26.40;;
4272;SDS011;63887;53.656;9.810;2023-03-21T12:46:26;34.43;;;23.17;;
4272;SDS011;63887;53.656;9.810;2023-03-21T12:48:57;32.03;;;22.37;;
4272;SDS011;63887;53.656;9.810;2023-03-21T12:51:28;35.83;;;24.37;;
4272;SDS011;63887;53.656;9.810;2023-03-21T12:54:05;34.20;;;23.70;;
4272;SDS011;63887;53.656;9.810;2023-03-21T12:56:37;42.97;;;26.00;;
4272;SDS011;63887;53.656;9.810;2023-03-21T12:59:14;33.87;;;23.53;;
4272;SDS011;63887;53.656;9.810;2023-03-21T13:01:49;35.00;;;23.67;;
4272;SDS011;63887;53.656;9.810;2023-03-21T13:04:26;36.50;;;23.63;;
4272;SDS011;63887;53.656;9.810;2023-03-21T13:06:59;38.77;;;25.80;;
4272;SDS011;63887;53.656;9.810;2023-03-21T13:09:32;32.10;;;23.13;;
4272;SDS011;63887;53.656;9.810;2023-03-21T13:12:02;33.53;;;23.63;;
4272;SDS011;63887;53.656;9.810;2023-03-21T13:14:42;36.47;;;23.43;;
4272;SDS011;63887;53.656;9.810;2023-03-21T13:17:20;42.47;;;26.40;;
4272;SDS011;63887;53.656;9.810;2023-03-21T13:19:53;27.10;;;22.20;;
4272;SDS011;63887;53.656;9.810;2023-03-21T13:22:25;28.47;;;21.87;;
4272;SDS011;63887;53.656;9.810;2023-03-21T13:24:56;32.40;;;22.97;;
4272;SDS011;63887;53.656;9.810;2023-03-21T13:27:25;24.87;;;21.33;;
4272;SDS011;63887;53.656;9.810;2023-03-21T13:29:57;26.20;;;20.23;;
4272;SDS011;63887;53.656;9.810;2023-03-21T13:32:28;24.60;;;20.30;;
4272;SDS011;63887;53.656;9.810;2023-03-21T13:34:57;27.60;;;20.77;;
4272;SDS011;63887;53.656;9.810;2023-03-21T13:37:28;25.40;;;20.47;;
4272;SDS011;63887;53.656;9.810;2023-03-21T13:39:58;29.00;;;21.10;;
4272;SDS011;63887;53.656;9.810;2023-03-21T13:42:33;31.43;;;21.30;;
4272;SDS011;63887;53.656;9.810;2023-03-21T13:45:00;28.43;;;19.67;;
4272;SDS011;63887;53.656;9.810;2023-03-21T13:47:38;27.07;;;20.87;;
4272;SDS011;63887;53.656;9.810;2023-03-21T13:50:26;23.90;;;19.30;;
4272;SDS011;63887;53.656;9.810;2023-03-21T13:53:10;25.00;;;19.83;;
4272;SDS011;63887;53.656;9.810;2023-03-21T13:55:45;21.90;;;18.20;;
4272;SDS011;63887;53.656;9.810;2023-03-21T13:58:23;31.73;;;20.53;;
4272;SDS011;63887;53.656;9.810;2023-03-21T14:03:56;25.93;;;19.43;;
4272;SDS011;63887;53.656;9.810;2023-03-21T14:06:25;26.63;;;20.63;;
4272;SDS011;63887;53.656;9.810;2023-03-21T14:08:58;25.73;;;20.47;;
4272;SDS011;63887;53.656;9.810;2023-03-21T14:11:26;37.50;;;21.70;;
4272;SDS011;63887;53.656;9.810;2023-03-21T14:13:54;30.10;;;22.03;;
4272;SDS011;63887;53.656;9.810;2023-03-21T14:16:24;25.63;;;20.23;;
4272;SDS011;63887;53.656;9.810;2023-03-21T14:18:53;26.40;;;20.53;;
4272;SDS011;63887;53.656;9.810;2023-03-21T14:21:23;27.00;;;20.80;;
4272;SDS011;63887;53.656;9.810;2023-03-21T14:23:55;25.47;;;21.10;;
4272;SDS011;63887;53.656;9.810;2023-03-21T14:26:23;23.63;;;20.80;;
4272;SDS011;63887;53.656;9.810;2023-03-21T14:28:51;26.73;;;20.67;;
4272;SDS011;63887;53.656;9.810;2023-03-21T14:31:18;25.63;;;20.20;;
4272;SDS011;63887;53.656;9.810;2023-03-21T14:33:46;36.63;;;19.10;;
4272;SDS011;63887;53.656;9.810;2023-03-21T14:36:18;25.83;;;19.23;;
4272;SDS011;63887;53.656;9.810;2023-03-21T14:38:54;21.37;;;19.20;;
4272;SDS011;63887;53.656;9.810;2023-03-21T14:41:24;24.67;;;19.33;;
4272;SDS011;63887;53.656;9.810;2023-03-21T14:46:50;27.60;;;19.00;;
4272;SDS011;63887;53.656;9.810;2023-03-21T14:49:19;28.73;;;20.33;;
4272;SDS011;63887;53.656;9.810;2023-03-21T14:51:50;23.03;;;20.13;;
4272;SDS011;63887;53.656;9.810;2023-03-21T14:54:19;27.67;;;21.50;;
4272;SDS011;63887;53.656;9.810;2023-03-21T14:56:49;24.77;;;20.23;;
4272;SDS011;63887;53.656;9.810;2023-03-21T14:59:18;24.60;;;19.07;;
4272;SDS011;63887;53.656;9.810;2023-03-21T15:01:47;30.13;;;22.03;;